createdAt,value
2019-04-11T00:00:01.411Z,54.22
2019-04-11T00:01:00.600Z,54.02
2019-04-11T00:02:00.528Z,53.70
2019-04-11T00:03:00.804Z,53.50
2019-04-11T00:04:00.576Z,53.60
2019-04-11T00:05:00.376Z,54.32
2019-04-11T00:06:01.401Z,53.81
2019-04-11T00:07:00.349Z,54.43
2019-04-11T00:08:01.744Z,54.43
2019-04-11T00:09:00.714Z,53.91
2019-04-11T00:10:01.134Z,54.22
2019-04-11T00:11:00.323Z,54.04
2019-04-11T00:12:00.326Z,53.73
2019-04-11T00:13:01.241Z,54.45
2019-04-11T00:14:00.278Z,54.43
2019-04-11T00:15:00.271Z,54.12
2019-04-11T00:16:01.284Z,54.63
2019-04-11T00:17:00.300Z,54.25
2019-04-11T00:18:00.677Z,54.25
2019-04-11T00:19:00.209Z,54.25
2019-04-11T00:20:00.202Z,54.14
2019-04-11T00:21:00.351Z,54.25
2019-04-11T00:22:01.398Z,54.86
2019-04-11T00:23:00.180Z,54.94
2019-04-11T00:24:00.747Z,54.97
2019-04-11T00:25:01.056Z,54.25
2019-04-11T00:26:00.153Z,54.14
2019-04-11T00:27:01.100Z,54.38
2019-04-11T00:28:00.116Z,54.99
2019-04-11T00:29:00.117Z,54.89
2019-04-11T00:30:00.110Z,55.93
2019-04-11T00:31:00.824Z,56.65
2019-04-11T00:32:01.109Z,54.58
2019-04-11T00:33:00.232Z,55.93
2019-04-11T00:34:00.071Z,55.93
2019-04-11T00:35:00.041Z,56.03
2019-04-11T00:36:00.052Z,56.03
2019-04-11T00:37:00.974Z,55.82
2019-04-11T00:38:01.298Z,55.95
2019-04-11T00:39:00.005Z,56.98
2019-04-11T00:39:59.999Z,55.93
2019-04-11T00:40:59.981Z,55.93
2019-04-11T00:41:59.955Z,56.03
2019-04-11T00:43:01.049Z,56.26
2019-04-11T00:44:00.829Z,56.37
2019-04-11T00:45:00.160Z,56.47
2019-04-11T00:46:00.161Z,57.09
2019-04-11T00:47:00.554Z,57.32
2019-04-11T00:47:59.891Z,56.98
2019-04-11T00:48:59.959Z,56.91
2019-04-11T00:50:00.921Z,56.60
2019-04-11T00:50:59.868Z,57.53
2019-04-11T00:52:00.358Z,56.49
2019-04-11T00:53:01.487Z,57.53
2019-04-11T00:54:00.574Z,57.94
2019-04-11T00:54:59.825Z,57.63
2019-04-11T00:55:59.923Z,58.04
2019-04-11T00:57:00.840Z,58.67
2019-04-11T00:57:59.808Z,58.15
2019-04-11T00:59:00.266Z,58.25
2019-04-11T00:59:59.758Z,56.39
2019-04-11T01:00:59.766Z,56.70
2019-04-11T01:02:00.908Z,57.19
2019-04-11T01:02:59.981Z,56.60
2019-04-11T01:03:59.724Z,57.09
2019-04-11T01:04:59.705Z,58.02
2019-04-11T01:05:59.694Z,57.71
2019-04-11T01:07:00.698Z,57.29
2019-04-11T01:07:59.727Z,56.47
2019-04-11T01:09:00.023Z,57.84
2019-04-11T01:09:59.686Z,58.04
2019-04-11T01:10:59.642Z,58.46
2019-04-11T01:12:00.478Z,58.15
2019-04-11T01:13:00.562Z,58.46
2019-04-11T01:13:59.624Z,58.15
2019-04-11T01:14:59.605Z,58.67
2019-04-11T01:16:00.528Z,58.46
2019-04-11T01:16:59.569Z,58.87
2019-04-11T01:17:59.623Z,58.56
2019-04-11T01:19:00.425Z,57.94
2019-04-11T01:19:59.563Z,58.18
2019-04-11T01:20:59.857Z,57.94
2019-04-11T01:21:59.619Z,58.98
2019-04-11T01:22:59.587Z,58.67
2019-04-11T01:23:59.653Z,59.31
2019-04-11T01:24:59.919Z,59.50
2019-04-11T01:25:59.513Z,59.60
2019-04-11T01:26:59.459Z,59.39
2019-04-11T01:28:00.560Z,59.29
2019-04-11T01:28:59.480Z,59.73
2019-04-11T01:29:59.915Z,59.50
2019-04-11T01:30:59.415Z,59.42
2019-04-11T01:32:00.179Z,59.63
2019-04-11T01:32:59.399Z,59.63
2019-04-11T01:34:00.191Z,59.52
2019-04-11T01:34:59.374Z,59.42
2019-04-11T01:35:59.549Z,59.73
2019-04-11T01:36:59.602Z,59.42
2019-04-11T01:37:59.872Z,59.31
2019-04-11T01:38:59.370Z,59.83
2019-04-11T01:39:59.457Z,59.31
2019-04-11T01:41:00.290Z,59.31
2019-04-11T01:41:59.288Z,59.31
2019-04-11T01:42:59.720Z,59.63
2019-04-11T01:44:03.406Z,59.96
2019-04-11T01:45:01.031Z,59.83
2019-04-11T01:46:00.089Z,60.06
2019-04-11T01:46:59.312Z,60.25
2019-04-11T01:47:59.494Z,60.04
2019-04-11T01:48:59.741Z,60.46
2019-04-11T01:49:59.261Z,59.73
2019-04-11T01:50:59.211Z,59.31
2019-04-11T01:52:00.095Z,59.73
2019-04-11T01:53:00.454Z,60.14
2019-04-11T01:53:59.426Z,60.04
2019-04-11T01:54:59.764Z,60.06
2019-04-11T01:55:59.171Z,59.94
2019-04-11T01:56:59.146Z,60.58
2019-04-11T01:58:00.349Z,60.17
2019-04-11T01:58:59.424Z,60.56
2019-04-11T01:59:59.664Z,60.66
2019-04-11T02:00:59.137Z,60.79
2019-04-11T02:01:59.099Z,60.25
2019-04-11T02:02:59.113Z,60.56
2019-04-11T02:03:59.376Z,60.87
2019-04-11T02:04:59.031Z,60.69
2019-04-11T02:05:59.195Z,60.46
2019-04-11T02:06:59.020Z,60.66
2019-04-11T02:07:58.998Z,60.27
2019-04-11T02:08:59.801Z,60.35
2019-04-11T02:10:00.093Z,60.14
2019-04-11T02:10:59.345Z,59.83
2019-04-11T02:12:01.585Z,60.14
2019-04-11T02:12:59.656Z,60.04
2019-04-11T02:14:09.819Z,60.14
2019-04-11T02:14:59.922Z,60.35
2019-04-11T02:15:59.955Z,59.94
2019-04-11T02:16:59.294Z,60.35
2019-04-11T02:18:01.332Z,60.04
2019-04-11T02:18:59.543Z,59.94
2019-04-11T02:19:58.862Z,60.04
2019-04-11T02:20:58.900Z,59.94
2019-04-11T02:22:00.031Z,60.14
2019-04-11T02:22:59.108Z,59.63
2019-04-11T02:23:59.562Z,59.73
2019-04-11T02:24:59.140Z,60.35
2019-04-11T02:25:58.808Z,60.46
2019-04-11T02:26:58.806Z,60.56
2019-04-11T02:27:58.811Z,59.73
2019-04-11T02:28:59.345Z,59.83
2019-04-11T02:29:58.797Z,59.52
2019-04-11T02:31:00.100Z,59.63
2019-04-11T02:32:01.215Z,59.86
2019-04-11T02:33:00.242Z,60.17
2019-04-11T02:33:59.425Z,59.75
2019-04-11T02:35:01.185Z,59.86
2019-04-11T02:36:00.701Z,60.06
2019-04-11T02:37:00.478Z,60.48
2019-04-11T02:37:59.144Z,60.30
2019-04-11T02:39:02.186Z,60.61
2019-04-11T02:40:00.160Z,60.72
2019-04-11T02:40:58.666Z,60.89
2019-04-11T02:41:59.092Z,60.79
2019-04-11T02:42:59.356Z,60.17
2019-04-11T02:43:59.329Z,59.66
2019-04-11T02:45:13.159Z,60.06
2019-04-11T02:46:11.827Z,59.99
2019-04-11T02:47:05.610Z,59.96
2019-04-11T02:48:01.399Z,60.30
2019-04-11T02:49:00.860Z,60.20
2019-04-11T02:49:59.226Z,60.48
2019-04-11T02:51:00.684Z,60.38
2019-04-11T02:51:58.697Z,60.06
2019-04-11T02:52:58.652Z,59.45
2019-04-11T02:53:58.982Z,59.66
2019-04-11T02:54:58.614Z,59.66
2019-04-11T02:56:00.454Z,59.63
2019-04-11T02:56:59.967Z,59.75
2019-04-11T02:57:59.734Z,59.55
2019-04-11T02:58:59.912Z,59.55
2019-04-11T02:59:59.827Z,59.55
2019-04-11T03:01:01.051Z,59.86
2019-04-11T03:02:00.291Z,60.20
2019-04-11T03:02:59.441Z,60.06
2019-04-11T03:03:59.061Z,59.66
2019-04-11T03:05:00.341Z,59.66
2019-04-11T03:05:59.931Z,59.55
2019-04-11T03:07:00.019Z,59.14
2019-04-11T03:07:58.550Z,59.34
2019-04-11T03:08:59.329Z,59.58
2019-04-11T03:09:58.341Z,59.47
2019-04-11T03:10:59.541Z,59.58
2019-04-11T03:11:59.057Z,59.68
2019-04-11T03:12:59.059Z,59.37
2019-04-11T03:14:00.588Z,59.34
2019-04-11T03:15:16.155Z,59.47
2019-04-11T03:16:16.836Z,59.78
2019-04-11T03:17:08.182Z,59.71
2019-04-11T03:18:02.919Z,59.68
2019-04-11T03:20:13.160Z,60.33
2019-04-11T03:21:05.974Z,60.64
2019-04-11T03:22:00.967Z,60.85
2019-04-11T03:23:04.816Z,60.85
2019-04-11T03:24:00.684Z,60.43
2019-04-11T03:25:00.128Z,60.12
2019-04-11T03:25:58.337Z,60.12
2019-04-11T03:27:00.405Z,60.43
2019-04-11T03:27:59.588Z,60.64
2019-04-11T03:28:59.704Z,60.33
2019-04-11T03:30:00.026Z,60.43
2019-04-11T03:31:26.484Z,60.64
2019-04-11T03:34:03.689Z,60.88
2019-04-11T03:34:53.499Z,61.08
2019-04-11T03:35:54.807Z,61.40
2019-04-11T03:36:55.730Z,61.71
2019-04-11T03:37:24.104Z,61.50
2019-04-11T03:38:27.326Z,61.40
2019-04-11T03:39:18.217Z,61.40
2019-04-11T03:40:17.120Z,61.71
2019-04-11T03:41:15.921Z,61.71
2019-04-11T03:42:17.183Z,62.43
2019-04-11T03:43:11.121Z,62.33
2019-04-11T03:44:07.786Z,62.54
2019-04-11T03:45:20.473Z,62.64
2019-04-11T03:46:20.466Z,62.33
2019-04-11T03:47:16.154Z,62.54
2019-04-11T03:48:15.160Z,62.64
2019-04-11T03:49:06.071Z,62.23
2019-04-11T03:50:06.044Z,62.54
2019-04-11T03:50:59.523Z,62.26
2019-04-11T03:51:59.138Z,62.74
2019-04-11T03:52:59.984Z,62.85
2019-04-11T03:53:59.107Z,62.88
2019-04-11T03:54:58.895Z,62.77
2019-04-11T03:55:59.141Z,63.53
2019-04-11T03:56:59.167Z,63.53
2019-04-11T03:57:59.177Z,63.94
2019-04-11T03:58:58.455Z,64.04
2019-04-11T03:59:58.754Z,63.84
2019-04-11T04:01:03.238Z,64.36
2019-04-11T04:01:59.898Z,64.49
2019-04-11T04:02:59.435Z,63.97
2019-04-11T04:03:58.363Z,63.87
2019-04-11T04:04:58.928Z,64.59
2019-04-11T04:06:00.028Z,64.18
2019-04-11T04:06:58.417Z,64.39
2019-04-11T04:07:59.665Z,64.59
2019-04-11T04:08:58.476Z,64.90
2019-04-11T04:09:58.490Z,64.46
2019-04-11T04:10:58.367Z,64.28
2019-04-11T04:11:59.447Z,64.49
2019-04-11T04:12:58.238Z,64.90
2019-04-11T04:13:59.548Z,65.01
2019-04-11T04:14:59.175Z,65.73
2019-04-11T04:16:07.517Z,65.73
2019-04-11T04:17:01.593Z,65.39
2019-04-11T04:17:59.766Z,64.15
2019-04-11T04:18:58.796Z,64.77
2019-04-11T04:19:59.395Z,63.94
2019-04-11T04:20:57.807Z,64.46
2019-04-11T04:21:58.257Z,64.46
2019-04-11T04:22:57.509Z,65.60
2019-04-11T04:23:59.342Z,65.19
2019-04-11T04:24:58.946Z,64.46
2019-04-11T04:25:58.489Z,65.08
2019-04-11T04:26:59.208Z,65.29
2019-04-11T04:27:58.900Z,64.77
2019-04-11T04:28:57.836Z,64.04
2019-04-11T04:29:59.949Z,64.15
2019-04-11T04:30:57.987Z,64.87
2019-04-11T04:31:58.970Z,64.77
2019-04-11T04:32:57.418Z,63.94
2019-04-11T04:33:57.826Z,65.29
2019-04-11T04:34:58.529Z,65.39
2019-04-11T04:35:58.018Z,65.22
2019-04-11T04:36:57.900Z,65.32
2019-04-11T04:37:59.114Z,66.05
2019-04-11T04:38:59.119Z,65.73
2019-04-11T04:40:21.045Z,65.29
2019-04-11T04:41:12.821Z,65.63
2019-04-11T04:42:06.331Z,65.84
2019-04-11T04:43:00.708Z,65.42
2019-04-11T04:43:59.145Z,66.05
2019-04-11T04:44:58.304Z,66.67
2019-04-11T04:46:12.117Z,65.87
2019-04-11T04:47:13.003Z,65.97
2019-04-11T04:48:03.557Z,65.73
2019-04-11T04:48:58.524Z,65.94
2019-04-11T04:49:59.119Z,66.28
2019-04-11T04:51:01.200Z,66.60
2019-04-11T04:51:59.439Z,66.71
2019-04-11T04:52:58.275Z,66.67
2019-04-11T04:53:57.885Z,67.33
2019-04-11T04:54:57.712Z,67.09
2019-04-11T04:55:57.491Z,66.71
2019-04-11T04:56:58.324Z,67.19
2019-04-11T04:57:57.681Z,67.22
2019-04-11T04:58:58.543Z,66.88
2019-04-11T04:59:57.830Z,67.19
2019-04-11T05:00:58.500Z,66.57
2019-04-11T05:01:57.086Z,66.47
2019-04-11T05:02:59.233Z,67.19
2019-04-11T05:03:58.290Z,67.40
2019-04-11T05:04:58.520Z,67.40
2019-04-11T05:05:58.349Z,66.57
2019-04-11T05:06:57.079Z,66.57
2019-04-11T05:07:58.347Z,67.40
2019-04-11T05:08:58.143Z,66.57
2019-04-11T05:09:58.569Z,66.47
2019-04-11T05:10:57.907Z,66.57
2019-04-11T05:11:57.039Z,66.15
2019-04-11T05:12:57.131Z,67.09
2019-04-11T05:13:58.609Z,66.47
2019-04-11T05:14:56.943Z,67.43
2019-04-11T05:16:06.825Z,67.71
2019-04-11T05:16:58.120Z,67.61
2019-04-11T05:17:57.724Z,67.85
2019-04-11T05:18:58.028Z,67.64
2019-04-11T05:19:56.867Z,67.64
2019-04-11T05:20:57.040Z,66.81
2019-04-11T05:21:57.576Z,66.81
2019-04-11T05:22:57.964Z,67.50
2019-04-11T05:23:56.823Z,67.74
2019-04-11T05:24:59.308Z,67.02
2019-04-11T05:25:57.153Z,67.09
2019-04-11T05:26:57.849Z,67.40
2019-04-11T05:27:57.867Z,67.19
2019-04-11T05:28:57.179Z,67.40
2019-04-11T05:29:56.800Z,67.50
2019-04-11T05:30:56.759Z,66.88
2019-04-11T05:31:56.806Z,67.16
2019-04-11T05:32:57.751Z,66.47
2019-04-11T05:33:56.747Z,66.88
2019-04-11T05:34:56.717Z,66.47
2019-04-11T05:35:56.710Z,67.40
2019-04-11T05:36:57.599Z,67.30
2019-04-11T05:37:57.823Z,66.78
2019-04-11T05:38:56.658Z,66.88
2019-04-11T05:39:56.772Z,66.88
2019-04-11T05:40:56.755Z,66.47
2019-04-11T05:41:56.773Z,67.02
2019-04-11T05:42:57.611Z,67.09
2019-04-11T05:44:00.929Z,67.33
2019-04-11T05:44:57.596Z,67.12
2019-04-11T05:45:56.793Z,67.40
2019-04-11T05:47:00.614Z,67.40
2019-04-11T05:47:58.353Z,67.61
2019-04-11T05:49:00.531Z,66.75
2019-04-11T05:49:56.851Z,67.16
2019-04-11T05:50:58.317Z,66.96
2019-04-11T05:51:58.612Z,67.16
2019-04-11T05:52:56.770Z,66.99
2019-04-11T05:53:57.515Z,67.19
2019-04-11T05:54:56.537Z,66.99
2019-04-11T05:55:57.422Z,67.19
2019-04-11T05:56:57.922Z,66.88
2019-04-11T05:57:56.479Z,66.99
2019-04-11T05:58:57.704Z,66.78
2019-04-11T05:59:57.677Z,66.75
2019-04-11T06:00:57.941Z,66.75
2019-04-11T06:02:01.496Z,67.27
2019-04-11T06:02:57.511Z,66.54
2019-04-11T06:03:57.363Z,66.75
2019-04-11T06:04:57.770Z,67.27
2019-04-11T06:05:59.888Z,66.54
2019-04-11T06:06:58.150Z,66.41
2019-04-11T06:07:57.770Z,65.78
2019-04-11T06:09:00.328Z,65.16
2019-04-11T06:09:56.577Z,65.89
2019-04-11T06:10:56.714Z,65.89
2019-04-11T06:11:57.596Z,65.68
2019-04-11T06:12:56.820Z,65.37
2019-04-11T06:13:56.568Z,65.78
2019-04-11T06:14:56.260Z,65.78
2019-04-11T06:16:00.676Z,65.89
2019-04-11T06:16:57.607Z,66.41
2019-04-11T06:17:56.621Z,65.37
2019-04-11T06:18:57.603Z,65.55
2019-04-11T06:19:56.217Z,65.16
2019-04-11T06:20:56.214Z,65.37
2019-04-11T06:21:56.177Z,65.68
2019-04-11T06:22:56.218Z,65.68
2019-04-11T06:23:56.171Z,65.65
2019-04-11T06:24:56.537Z,65.44
2019-04-11T06:25:57.379Z,65.26
2019-04-11T06:26:56.866Z,65.23
2019-04-11T06:27:56.113Z,65.13
2019-04-11T06:28:57.007Z,65.78
2019-04-11T06:29:56.107Z,65.06
2019-04-11T06:30:56.942Z,65.55
2019-04-11T06:31:57.218Z,65.78
2019-04-11T06:32:56.321Z,65.75
2019-04-11T06:33:56.623Z,65.34
2019-04-11T06:34:56.052Z,64.82
2019-04-11T06:35:56.720Z,65.03
2019-04-11T06:36:57.143Z,65.52
2019-04-11T06:37:56.312Z,65.20
2019-04-11T06:38:56.731Z,64.27
2019-04-11T06:39:57.759Z,64.06
2019-04-11T06:40:55.984Z,64.06
2019-04-11T06:41:56.967Z,64.48
2019-04-11T06:42:56.078Z,64.27
2019-04-11T06:43:56.412Z,64.48
2019-04-11T06:44:56.438Z,64.48
2019-04-11T06:45:56.544Z,64.06
2019-04-11T06:46:58.040Z,64.48
2019-04-11T06:47:56.990Z,64.48
2019-04-11T06:48:56.157Z,64.76
2019-04-11T06:49:55.881Z,64.24
2019-04-11T06:50:55.867Z,63.82
2019-04-11T06:51:56.757Z,64.14
2019-04-11T06:52:56.050Z,63.62
2019-04-11T06:53:56.679Z,63.31
2019-04-11T06:54:56.103Z,62.97
2019-04-11T06:55:55.818Z,62.87
2019-04-11T06:56:55.793Z,62.14
2019-04-11T06:57:56.379Z,62.63
2019-04-11T06:58:56.733Z,62.45
2019-04-11T06:59:56.724Z,62.21
2019-04-11T07:00:55.852Z,62.11
2019-04-11T07:02:07.500Z,62.14
2019-04-11T07:02:57.135Z,62.45
2019-04-11T07:03:55.743Z,62.45
2019-04-11T07:04:56.009Z,62.76
2019-04-11T07:05:55.710Z,62.42
2019-04-11T07:06:55.879Z,62.32
2019-04-11T07:07:55.872Z,62.42
2019-04-11T07:08:56.825Z,62.21
2019-04-11T07:09:55.661Z,61.67
2019-04-11T07:10:55.660Z,60.87
2019-04-11T07:11:55.636Z,61.36
2019-04-11T07:12:57.290Z,61.46
2019-04-11T07:13:55.613Z,60.53
2019-04-11T07:14:55.650Z,61.15
2019-04-11T07:15:56.903Z,60.84
2019-04-11T07:17:03.908Z,60.74
2019-04-11T07:17:56.755Z,61.05
2019-04-11T07:18:55.546Z,61.05
2019-04-11T07:19:55.853Z,61.15
2019-04-11T07:20:56.307Z,60.60
2019-04-11T07:21:56.066Z,60.09
2019-04-11T07:22:55.504Z,60.19
2019-04-11T07:23:55.653Z,59.57
2019-04-11T07:24:55.484Z,59.88
2019-04-11T07:25:55.959Z,59.39
2019-04-11T07:26:55.477Z,59.50
2019-04-11T07:27:55.459Z,60.22
2019-04-11T07:28:56.513Z,60.30
2019-04-11T07:29:56.544Z,59.67
2019-04-11T07:30:56.097Z,59.47
2019-04-11T07:31:55.418Z,59.47
2019-04-11T07:32:55.398Z,59.34
2019-04-11T07:33:56.185Z,59.44
2019-04-11T07:34:56.575Z,58.82
2019-04-11T07:35:55.361Z,58.20
2019-04-11T07:36:55.835Z,58.61
2019-04-11T07:37:55.448Z,58.61
2019-04-11T07:38:56.641Z,58.28
2019-04-11T07:39:56.230Z,58.09
2019-04-11T07:40:56.199Z,57.97
2019-04-11T07:41:56.018Z,57.97
2019-04-11T07:42:59.435Z,58.07
2019-04-11T07:43:56.532Z,58.07
2019-04-11T07:44:55.423Z,57.73
2019-04-11T07:45:55.887Z,56.62
2019-04-11T07:46:55.915Z,56.18
2019-04-11T07:47:55.290Z,56.81
2019-04-11T07:48:55.220Z,54.84
2019-04-11T07:49:56.746Z,54.43
2019-04-11T07:50:55.500Z,54.40
2019-04-11T07:51:55.200Z,53.06
2019-04-11T07:52:56.186Z,53.06
2019-04-11T07:53:56.692Z,52.23
2019-04-11T07:54:55.744Z,52.13
2019-04-11T07:55:55.422Z,51.82
2019-04-11T07:56:55.183Z,52.31
2019-04-11T07:57:55.131Z,52.55
2019-04-11T07:58:55.103Z,52.73
2019-04-11T07:59:55.693Z,52.11
2019-04-11T08:00:55.948Z,52.00
2019-04-11T08:01:55.067Z,51.92
2019-04-11T08:02:55.279Z,51.62
2019-04-11T08:03:55.750Z,51.62
2019-04-11T08:04:55.362Z,51.59
2019-04-11T08:05:55.074Z,52.52
2019-04-11T08:06:55.029Z,53.55
2019-04-11T08:07:55.143Z,52.60
2019-04-11T08:08:55.951Z,51.87
2019-04-11T08:09:55.026Z,52.29
2019-04-11T08:10:55.080Z,51.95
2019-04-11T08:11:56.126Z,51.34
2019-04-11T08:12:55.954Z,48.97
2019-04-11T08:13:56.574Z,49.99
2019-04-11T08:14:55.100Z,49.25
2019-04-11T08:15:55.792Z,49.15
2019-04-11T08:16:55.351Z,48.53
2019-04-11T08:17:56.328Z,48.10
2019-04-11T08:18:55.062Z,48.71
2019-04-11T08:19:55.324Z,48.74
2019-04-11T08:20:55.324Z,48.22
2019-04-11T08:21:54.891Z,49.02
2019-04-11T08:22:55.081Z,48.51
2019-04-11T08:23:54.838Z,48.41
2019-04-11T08:24:54.849Z,48.10
2019-04-11T08:25:55.815Z,48.41
2019-04-11T08:26:55.519Z,48.74
2019-04-11T08:28:00.663Z,48.51
2019-04-11T08:29:05.400Z,48.20
2019-04-11T08:29:55.784Z,47.09
2019-04-11T08:30:55.457Z,47.01
2019-04-11T08:31:56.190Z,46.80
2019-04-11T08:32:54.876Z,47.42
2019-04-11T08:33:55.147Z,47.63
2019-04-11T08:34:55.448Z,48.86
2019-04-11T08:35:55.628Z,48.86
2019-04-11T08:36:54.923Z,48.24
2019-04-11T08:37:55.931Z,48.35
2019-04-11T08:38:54.703Z,49.27
2019-04-11T08:39:55.498Z,47.52
2019-04-11T08:40:55.471Z,46.91
2019-04-11T08:41:54.745Z,46.80
2019-04-11T08:42:54.901Z,45.46
2019-04-11T08:43:55.257Z,45.77
2019-04-11T08:44:54.620Z,46.08
2019-04-11T08:45:54.601Z,46.08
2019-04-11T08:46:54.587Z,46.06
2019-04-11T08:47:57.657Z,45.44
2019-04-11T08:48:54.579Z,44.62
2019-04-11T08:49:55.806Z,45.13
2019-04-11T08:50:54.673Z,44.82
2019-04-11T08:51:55.747Z,43.98
2019-04-11T08:52:54.521Z,44.29
2019-04-11T08:53:55.212Z,45.01
2019-04-11T08:54:55.653Z,44.70
2019-04-11T08:55:57.169Z,42.62
2019-04-11T08:56:55.674Z,42.62
2019-04-11T08:57:54.483Z,42.29
2019-04-11T08:58:55.108Z,41.26
2019-04-11T08:59:54.526Z,41.05
2019-04-11T09:00:56.304Z,40.95
2019-04-11T09:01:54.415Z,40.62
2019-04-11T09:02:55.432Z,41.03
2019-04-11T09:04:02.146Z,40.11
2019-04-11T09:05:04.818Z,39.70
2019-04-11T09:05:56.864Z,40.11
2019-04-11T09:06:54.763Z,39.08
2019-04-11T09:07:54.347Z,38.48
2019-04-11T09:08:54.474Z,38.79
2019-04-11T09:09:55.572Z,39.94
2019-04-11T09:10:54.310Z,40.27
2019-04-11T09:11:54.331Z,40.27
2019-04-11T09:12:55.122Z,40.19
2019-04-11T09:13:54.301Z,39.77
2019-04-11T09:14:54.772Z,38.31
2019-04-11T09:15:54.268Z,38.52
2019-04-11T09:16:54.255Z,39.55
2019-04-11T09:18:02.122Z,39.45
2019-04-11T09:18:55.212Z,39.63
2019-04-11T09:19:55.053Z,38.82
2019-04-11T09:20:54.214Z,37.88
2019-04-11T09:21:54.197Z,37.35
2019-04-11T09:22:55.380Z,38.07
2019-04-11T09:23:54.330Z,38.15
2019-04-11T09:24:54.734Z,37.43
2019-04-11T09:25:55.346Z,38.45
2019-04-11T09:26:54.133Z,37.93
2019-04-11T09:27:55.566Z,37.21
2019-04-11T09:28:54.105Z,35.55
2019-04-11T09:29:54.528Z,35.14
2019-04-11T09:30:54.883Z,35.36
2019-04-11T09:31:54.080Z,34.85
2019-04-11T09:32:54.116Z,35.36
2019-04-11T09:33:55.470Z,36.00
2019-04-11T09:34:54.245Z,36.61
2019-04-11T09:35:54.119Z,36.00
2019-04-11T09:36:54.022Z,36.51
2019-04-11T09:37:54.036Z,36.82
2019-04-11T09:38:54.834Z,37.02
2019-04-11T09:39:55.172Z,37.02
2019-04-11T09:40:54.271Z,36.41
2019-04-11T09:41:54.496Z,36.51
2019-04-11T09:42:53.944Z,36.39
2019-04-11T09:43:53.943Z,36.20
2019-04-11T09:44:55.170Z,37.23
2019-04-11T09:45:54.267Z,36.49
2019-04-11T09:46:54.863Z,37.11
2019-04-11T09:48:01.660Z,36.49
2019-04-11T09:48:56.016Z,36.90
2019-04-11T09:49:53.879Z,36.19
2019-04-11T09:50:53.871Z,37.11
2019-04-11T09:51:53.953Z,37.11
2019-04-11T09:52:54.563Z,36.70
2019-04-11T09:53:54.752Z,37.42
2019-04-11T09:54:54.694Z,37.13
2019-04-11T09:55:53.826Z,38.24
2019-04-11T09:56:54.011Z,37.74
2019-04-11T09:57:54.598Z,36.39
2019-04-11T09:58:53.991Z,36.29
2019-04-11T09:59:53.946Z,36.19
2019-04-11T10:00:54.931Z,36.89
2019-04-11T10:01:54.050Z,36.47
2019-04-11T10:02:53.745Z,35.45
2019-04-11T10:03:53.883Z,35.14
2019-04-11T10:04:54.362Z,34.83
2019-04-11T10:05:54.651Z,36.37
2019-04-11T10:06:55.003Z,36.80
2019-04-11T10:07:54.469Z,37.62
2019-04-11T10:08:53.682Z,37.93
2019-04-11T10:09:54.165Z,37.32
2019-04-11T10:10:53.680Z,39.06
2019-04-11T10:11:54.939Z,39.17
2019-04-11T10:12:54.209Z,38.55
2019-04-11T10:13:53.645Z,37.93
2019-04-11T10:14:53.690Z,37.73
2019-04-11T10:15:53.697Z,38.24
2019-04-11T10:16:53.577Z,36.70
2019-04-11T10:17:54.756Z,38.14
2019-04-11T10:18:53.683Z,37.11
2019-04-11T10:19:54.138Z,37.73
2019-04-11T10:20:53.572Z,38.26
2019-04-11T10:21:54.369Z,38.87
2019-04-11T10:22:54.444Z,38.36
2019-04-11T10:23:53.551Z,38.06
2019-04-11T10:24:54.736Z,37.85
2019-04-11T10:25:53.851Z,38.26
2019-04-11T10:26:53.470Z,37.64
2019-04-11T10:27:53.442Z,38.14
2019-04-11T10:28:53.633Z,37.93
2019-04-11T10:29:54.601Z,37.51
2019-04-11T10:30:53.740Z,37.09
2019-04-11T10:31:53.440Z,36.66
2019-04-11T10:32:53.407Z,36.55
2019-04-11T10:33:53.396Z,36.44
2019-04-11T10:34:54.156Z,36.85
2019-04-11T10:35:54.485Z,36.75
2019-04-11T10:36:53.706Z,37.18
2019-04-11T10:37:53.337Z,36.89
2019-04-11T10:38:53.330Z,36.37
2019-04-11T10:39:53.662Z,36.19
2019-04-11T10:40:54.467Z,36.79
2019-04-11T10:41:53.827Z,37.32
2019-04-11T10:42:53.915Z,37.62
2019-04-11T10:43:53.785Z,36.47
2019-04-11T10:44:54.106Z,36.99
2019-04-11T10:45:53.269Z,37.93
2019-04-11T10:46:53.513Z,37.21
2019-04-11T10:47:54.457Z,37.09
2019-04-11T10:48:53.214Z,36.79
2019-04-11T10:49:53.218Z,36.27
2019-04-11T10:50:53.202Z,35.75
2019-04-11T10:51:53.967Z,35.05
2019-04-11T10:52:53.199Z,35.98
2019-04-11T10:53:53.337Z,36.90
2019-04-11T10:54:53.328Z,35.88
2019-04-11T10:55:53.730Z,36.17
2019-04-11T10:56:53.677Z,37.51
2019-04-11T10:57:54.044Z,36.89
2019-04-11T10:58:53.365Z,37.42
2019-04-11T10:59:53.097Z,36.39
2019-04-11T11:00:53.627Z,37.85
2019-04-11T11:01:53.059Z,37.43
2019-04-11T11:02:53.653Z,37.64
2019-04-11T11:03:53.503Z,38.45
2019-04-11T11:04:53.039Z,37.92
2019-04-11T11:05:53.373Z,38.02
2019-04-11T11:06:53.868Z,37.59
2019-04-11T11:07:53.027Z,37.68
2019-04-11T11:08:53.411Z,36.44
2019-04-11T11:09:52.980Z,36.22
2019-04-11T11:10:52.978Z,37.24
2019-04-11T11:11:52.960Z,35.91
2019-04-11T11:12:53.791Z,34.78
2019-04-11T11:13:54.195Z,34.77
2019-04-11T11:14:53.547Z,34.06
2019-04-11T11:15:52.907Z,33.86
2019-04-11T11:16:52.903Z,34.27
2019-04-11T11:18:27.883Z,34.89
2019-04-11T11:19:24.653Z,35.42
2019-04-11T11:20:04.851Z,35.02
2019-04-11T11:20:57.094Z,36.15
2019-04-11T11:21:53.850Z,35.94
2019-04-11T11:22:53.730Z,36.47
2019-04-11T11:23:52.828Z,36.47
2019-04-11T11:24:52.801Z,37.30
2019-04-11T11:25:53.333Z,37.38
2019-04-11T11:26:56.357Z,37.81
2019-04-11T11:27:53.771Z,39.04
2019-04-11T11:28:52.804Z,39.75
2019-04-11T11:29:53.928Z,38.02
2019-04-11T11:30:54.070Z,38.53
2019-04-11T11:31:52.732Z,38.53
2019-04-11T11:32:53.811Z,37.92
2019-04-11T11:33:52.727Z,37.92
2019-04-11T11:34:53.387Z,38.21
2019-04-11T11:35:53.990Z,38.31
2019-04-11T11:36:54.505Z,37.90
2019-04-11T11:37:53.442Z,37.51
2019-04-11T11:38:52.657Z,37.90
2019-04-11T11:39:52.762Z,37.60
2019-04-11T11:40:52.633Z,38.21
2019-04-11T11:41:52.625Z,38.94
2019-04-11T11:42:52.649Z,38.12
2019-04-11T11:43:52.609Z,38.12
2019-04-11T11:44:53.121Z,38.34
2019-04-11T11:45:55.558Z,37.93
2019-04-11T11:46:52.572Z,38.55
2019-04-11T11:47:53.234Z,39.58
2019-04-11T11:48:54.164Z,39.70
2019-04-11T11:49:59.802Z,39.80
2019-04-11T11:50:53.560Z,39.18
2019-04-11T11:51:52.511Z,38.57
2019-04-11T11:52:53.214Z,39.89
2019-04-11T11:53:53.210Z,39.58
2019-04-11T11:54:53.573Z,39.66
2019-04-11T11:55:53.563Z,39.06
2019-04-11T11:56:52.460Z,38.74
2019-04-11T11:57:53.106Z,39.68
2019-04-11T11:58:57.787Z,39.37
2019-04-11T11:59:53.504Z,39.99
2019-04-11T12:00:54.536Z,40.30
2019-04-11T12:01:53.052Z,40.81
2019-04-11T12:02:53.944Z,40.71
2019-04-11T12:03:52.740Z,40.71
2019-04-11T12:04:52.369Z,40.81
2019-04-11T12:05:53.807Z,40.91
2019-04-11T12:06:58.035Z,41.22
2019-04-11T12:07:54.532Z,40.50
2019-04-11T12:08:52.320Z,40.91
2019-04-11T12:09:52.972Z,40.91
2019-04-11T12:10:53.333Z,40.52
2019-04-11T12:11:53.914Z,40.81
2019-04-11T12:12:52.269Z,41.12
2019-04-11T12:13:52.260Z,41.94
2019-04-11T12:14:52.270Z,41.65
2019-04-11T12:15:53.266Z,42.05
2019-04-11T12:16:59.635Z,41.33
2019-04-11T12:17:54.047Z,41.31
2019-04-11T12:18:54.375Z,40.59
2019-04-11T12:19:55.035Z,40.17
2019-04-11T12:20:57.076Z,40.48
2019-04-11T12:21:52.226Z,39.95
2019-04-11T12:22:53.603Z,40.59
2019-04-11T12:24:00.470Z,40.77
2019-04-11T12:24:53.254Z,40.47
2019-04-11T12:25:52.134Z,40.14
2019-04-11T12:26:52.147Z,39.94
2019-04-11T12:27:52.194Z,40.45
2019-04-11T12:28:52.282Z,39.94
2019-04-11T12:29:53.426Z,39.73
2019-04-11T12:30:53.054Z,40.03
2019-04-11T12:31:53.113Z,40.05
2019-04-11T12:32:52.908Z,40.36
2019-04-11T12:33:52.141Z,40.47
2019-04-11T12:34:52.019Z,40.34
2019-04-11T12:35:52.784Z,39.52
2019-04-11T12:36:54.322Z,39.62
2019-04-11T12:37:53.362Z,39.61
2019-04-11T12:38:54.633Z,38.28
2019-04-11T12:39:51.983Z,38.77
2019-04-11T12:40:51.959Z,37.55
2019-04-11T12:41:51.975Z,38.17
2019-04-11T12:42:51.946Z,37.95
2019-04-11T12:43:51.931Z,37.64
2019-04-11T12:44:51.915Z,37.13
2019-04-11T12:45:51.902Z,37.64
2019-04-11T12:46:51.925Z,37.33
2019-04-11T12:47:51.922Z,38.34
2019-04-11T12:48:51.884Z,37.62
2019-04-11T12:49:53.230Z,37.62
2019-04-11T12:50:51.847Z,37.40
2019-04-11T12:51:51.847Z,37.91
2019-04-11T12:52:51.900Z,37.79
2019-04-11T12:53:51.839Z,36.87